createdAt,value
2019-03-23T00:00:00.517Z,6.30
2019-03-23T00:02:29.235Z,5.67
2019-03-23T00:04:57.947Z,5.87
2019-03-23T00:07:26.785Z,5.30
2019-03-23T00:09:55.492Z,5.90
2019-03-23T00:12:24.252Z,5.43
2019-03-23T00:14:53.190Z,4.97
2019-03-23T00:17:21.950Z,6.30
2019-03-23T00:19:50.654Z,4.67
2019-03-23T00:22:19.333Z,5.03
2019-03-23T00:24:48.228Z,5.40
2019-03-23T00:27:16.964Z,5.53
2019-03-23T00:29:45.631Z,6.17
2019-03-23T00:32:14.323Z,5.43
2019-03-23T00:34:43.037Z,5.70
2019-03-23T00:37:11.710Z,5.00
2019-03-23T00:39:40.423Z,5.43
2019-03-23T00:42:09.168Z,7.73
2019-03-23T00:44:38.026Z,8.03
2019-03-23T00:47:06.827Z,8.60
2019-03-23T00:49:35.563Z,9.83
2019-03-23T00:52:04.288Z,11.23
2019-03-23T00:54:33.050Z,9.80
2019-03-23T00:57:01.933Z,10.30
2019-03-23T00:59:30.763Z,11.23
2019-03-23T01:01:59.434Z,12.70
2019-03-23T01:04:28.136Z,14.13
2019-03-23T01:06:56.815Z,12.93
2019-03-23T01:09:25.550Z,13.47
2019-03-23T01:11:54.321Z,13.80
2019-03-23T01:14:23.051Z,13.80
2019-03-23T01:16:51.726Z,12.83
2019-03-23T01:19:20.423Z,13.20
2019-03-23T01:21:49.135Z,14.40
2019-03-23T01:24:17.822Z,13.87
2019-03-23T01:26:46.559Z,12.70
2019-03-23T01:29:15.223Z,15.40
2019-03-23T01:31:44.040Z,14.97
2019-03-23T01:34:12.734Z,15.10
2019-03-23T01:36:41.446Z,16.33
2019-03-23T01:39:10.394Z,15.47
2019-03-23T01:41:39.075Z,14.03
2019-03-23T01:44:07.773Z,14.43
2019-03-23T01:46:36.474Z,17.10
2019-03-23T01:49:05.193Z,21.37
2019-03-23T01:51:33.912Z,29.90
2019-03-23T01:54:02.741Z,31.73
2019-03-23T01:56:31.445Z,37.83
2019-03-23T01:59:00.184Z,37.07
2019-03-23T02:01:28.864Z,36.50
2019-03-23T02:03:57.539Z,36.43
2019-03-23T02:06:26.255Z,35.60
2019-03-23T02:08:54.925Z,37.17
2019-03-23T02:11:23.689Z,36.00
2019-03-23T02:13:52.360Z,35.43
2019-03-23T02:16:21.074Z,36.17
2019-03-23T02:18:49.814Z,38.93
2019-03-23T02:21:18.477Z,39.30
2019-03-23T02:23:47.198Z,37.07
2019-03-23T02:26:15.885Z,38.60
2019-03-23T02:28:44.573Z,35.80
2019-03-23T02:31:13.282Z,39.17
2019-03-23T02:33:42.198Z,36.97
2019-03-23T02:36:10.916Z,36.50
2019-03-23T02:38:39.597Z,36.50
2019-03-23T02:41:08.294Z,37.43
2019-03-23T02:43:36.978Z,31.30
2019-03-23T02:46:05.639Z,31.00
2019-03-23T02:48:34.348Z,29.90
2019-03-23T02:51:03.019Z,28.87
2019-03-23T02:53:31.827Z,31.30
2019-03-23T02:56:00.514Z,33.53
2019-03-23T02:58:29.422Z,33.00
2019-03-23T03:00:58.110Z,32.37
2019-03-23T03:03:26.819Z,40.00
2019-03-23T03:05:55.505Z,37.40
2019-03-23T03:08:24.200Z,38.67
2019-03-23T03:10:52.914Z,34.73
2019-03-23T03:13:21.637Z,39.33
2019-03-23T03:15:50.329Z,38.80
2019-03-23T03:18:19.051Z,43.70
2019-03-23T03:20:47.766Z,40.83
2019-03-23T03:23:16.490Z,40.70
2019-03-23T03:25:45.199Z,47.77
2019-03-23T03:28:14.196Z,47.53
2019-03-23T03:30:42.877Z,49.40
2019-03-23T03:33:11.786Z,51.20
2019-03-23T03:35:40.698Z,50.80
2019-03-23T03:38:09.385Z,52.90
2019-03-23T03:40:38.088Z,52.07
2019-03-23T03:43:06.943Z,55.80
2019-03-23T03:45:35.660Z,51.03
2019-03-23T03:48:04.566Z,52.67
2019-03-23T03:50:33.210Z,54.90
2019-03-23T03:53:01.898Z,60.80
2019-03-23T03:55:30.575Z,54.80
2019-03-23T03:57:59.279Z,55.37
2019-03-23T04:00:27.951Z,53.63
2019-03-23T04:02:56.900Z,53.50
2019-03-23T04:05:25.646Z,61.80
2019-03-23T04:07:54.463Z,57.00
2019-03-23T04:10:23.181Z,61.13
2019-03-23T04:12:51.838Z,64.30
2019-03-23T04:15:20.557Z,59.10
2019-03-23T04:17:49.269Z,58.83
2019-03-23T04:20:17.982Z,64.23
2019-03-23T04:22:46.723Z,58.70
2019-03-23T04:25:15.430Z,64.20
2019-03-23T04:27:44.131Z,59.43
2019-03-23T04:30:13.240Z,66.93
2019-03-23T04:32:42.002Z,66.20
2019-03-23T04:35:10.776Z,61.80
2019-03-23T04:37:39.526Z,59.23
2019-03-23T04:40:10.779Z,62.77
2019-03-23T04:42:39.444Z,59.77
2019-03-23T04:45:10.703Z,60.80
2019-03-23T04:47:39.372Z,59.03
2019-03-23T04:50:10.922Z,57.70
2019-03-23T04:52:39.768Z,57.93
2019-03-23T04:55:12.855Z,55.40
2019-03-23T04:57:41.565Z,60.87
2019-03-23T05:00:21.260Z,62.60
2019-03-23T05:02:49.947Z,59.00
2019-03-23T05:05:18.667Z,60.07
2019-03-23T05:07:47.348Z,63.10
2019-03-23T05:10:16.037Z,60.17
2019-03-23T05:12:44.804Z,59.50
2019-03-23T05:15:13.999Z,55.73
2019-03-23T05:17:42.699Z,54.20
2019-03-23T05:20:31.471Z,55.97
2019-03-23T05:23:00.167Z,56.77
2019-03-23T05:25:30.297Z,55.50
2019-03-23T05:27:59.273Z,54.90
2019-03-23T05:30:27.957Z,57.67
2019-03-23T05:32:56.704Z,57.57
2019-03-23T05:35:25.381Z,52.90
2019-03-23T05:37:54.063Z,52.10
2019-03-23T05:40:22.792Z,56.33
2019-03-23T05:42:51.522Z,52.67
2019-03-23T05:45:20.202Z,53.53
2019-03-23T05:47:48.930Z,51.60
2019-03-23T05:50:17.639Z,49.47
2019-03-23T05:52:46.514Z,50.67
2019-03-23T05:55:15.236Z,50.80
2019-03-23T05:57:44.085Z,50.37
2019-03-23T06:00:14.902Z,54.57
2019-03-23T06:02:43.631Z,48.87
2019-03-23T06:05:12.479Z,49.53
2019-03-23T06:07:41.235Z,51.63
2019-03-23T06:10:09.944Z,53.43
2019-03-23T06:12:38.920Z,51.03
2019-03-23T06:15:07.833Z,46.70
2019-03-23T06:17:36.617Z,49.77
2019-03-23T06:20:06.931Z,46.37
2019-03-23T06:22:35.608Z,51.80
2019-03-23T06:25:05.911Z,52.10
2019-03-23T06:27:34.572Z,51.37
2019-03-23T06:30:03.498Z,51.23
2019-03-23T06:32:32.230Z,49.37
2019-03-23T06:35:01.239Z,58.73
2019-03-23T06:37:29.965Z,52.90
2019-03-23T06:39:58.748Z,52.37
2019-03-23T06:42:27.499Z,54.63
2019-03-23T06:44:56.224Z,53.00
2019-03-23T06:47:24.942Z,53.40
2019-03-23T06:49:53.611Z,54.27
2019-03-23T06:52:22.335Z,52.90
2019-03-23T06:54:51.041Z,53.63
2019-03-23T06:57:20.069Z,51.57
2019-03-23T06:59:48.742Z,54.23
2019-03-23T07:02:17.446Z,54.00
2019-03-23T07:04:46.210Z,54.20
2019-03-23T07:07:14.911Z,54.90
2019-03-23T07:09:43.632Z,56.67
2019-03-23T07:12:12.346Z,58.70
2019-03-23T07:14:41.030Z,53.63
2019-03-23T07:17:09.821Z,51.97
2019-03-23T07:19:38.515Z,52.10
2019-03-23T07:22:07.210Z,55.80
2019-03-23T07:24:35.941Z,52.97
2019-03-23T07:27:04.667Z,54.07
2019-03-23T07:29:33.437Z,56.50
2019-03-23T07:32:06.087Z,56.33
2019-03-23T07:34:32.617Z,54.60
2019-03-23T07:37:01.391Z,57.70
2019-03-23T07:39:30.528Z,59.43
2019-03-23T07:41:59.529Z,54.47
2019-03-23T07:44:28.241Z,55.90
2019-03-23T07:46:57.073Z,59.87
2019-03-23T07:49:25.753Z,59.47
2019-03-23T07:51:54.447Z,56.93
2019-03-23T07:54:23.137Z,55.63
2019-03-23T07:56:51.839Z,54.97
2019-03-23T07:59:20.636Z,55.13
2019-03-23T08:01:49.320Z,55.73
2019-03-23T08:04:18.132Z,57.33
2019-03-23T08:06:46.863Z,57.40
2019-03-23T08:09:20.506Z,56.37
2019-03-23T08:11:45.949Z,57.50
2019-03-23T08:14:14.668Z,56.10
2019-03-23T08:16:43.360Z,50.90
2019-03-23T08:19:12.301Z,54.00
2019-03-23T08:21:40.996Z,51.43
2019-03-23T08:24:09.723Z,51.43
2019-03-23T08:26:38.401Z,54.57
2019-03-23T08:29:07.144Z,55.87
2019-03-23T08:31:35.895Z,54.03
2019-03-23T08:34:04.603Z,57.63
2019-03-23T08:36:33.334Z,55.70
2019-03-23T08:39:07.036Z,59.07
2019-03-23T08:41:35.787Z,56.73
2019-03-23T08:44:04.679Z,59.90
2019-03-23T08:46:33.429Z,58.00
2019-03-23T08:49:02.169Z,52.87
2019-03-23T08:51:31.100Z,52.13
2019-03-23T08:53:59.772Z,54.10
2019-03-23T08:56:28.480Z,53.10
2019-03-23T08:58:57.163Z,55.73
2019-03-23T09:01:25.864Z,53.50
2019-03-23T09:03:54.931Z,53.30
2019-03-23T09:06:24.988Z,52.83
2019-03-23T09:08:53.682Z,51.80
2019-03-23T09:11:22.412Z,52.00
2019-03-23T09:13:51.135Z,51.90
2019-03-23T09:16:19.844Z,50.87
2019-03-23T09:18:48.529Z,50.77
2019-03-23T09:21:17.270Z,55.83
2019-03-23T09:23:46.010Z,52.33
2019-03-23T09:26:14.782Z,51.67
2019-03-23T09:28:43.511Z,54.33
2019-03-23T09:31:12.214Z,51.70
2019-03-23T09:33:40.906Z,52.60
2019-03-23T09:36:09.601Z,53.30
2019-03-23T09:38:38.313Z,54.83
2019-03-23T09:41:07.234Z,57.90
2019-03-23T09:43:35.909Z,55.80
2019-03-23T09:46:04.906Z,54.40
2019-03-23T09:48:33.593Z,55.53
2019-03-23T09:51:02.510Z,56.97
2019-03-23T09:53:31.185Z,53.53
2019-03-23T09:55:59.901Z,54.30
2019-03-23T09:58:28.656Z,51.00
2019-03-23T10:00:57.431Z,53.63
2019-03-23T10:03:26.162Z,53.60
2019-03-23T10:05:54.862Z,54.87
2019-03-23T10:08:23.565Z,51.03
2019-03-23T10:10:52.306Z,55.70
2019-03-23T10:13:21.024Z,55.93
2019-03-23T10:15:49.726Z,55.17
2019-03-23T10:18:18.544Z,56.30
2019-03-23T10:20:47.242Z,55.57
2019-03-23T10:23:15.945Z,55.47
2019-03-23T10:25:44.826Z,53.43
2019-03-23T10:28:13.494Z,49.43
2019-03-23T10:30:42.219Z,50.00
2019-03-23T10:33:11.038Z,55.17
2019-03-23T10:35:39.736Z,54.97
2019-03-23T10:38:08.521Z,50.47
2019-03-23T10:40:37.412Z,57.07
2019-03-23T10:43:06.134Z,53.50
2019-03-23T10:45:43.813Z,55.30
2019-03-23T10:48:08.447Z,52.17
2019-03-23T10:50:37.155Z,55.37
2019-03-23T10:53:05.845Z,52.43
2019-03-23T10:55:37.371Z,58.80
2019-03-23T10:58:06.143Z,59.93
2019-03-23T11:00:34.863Z,55.33
2019-03-23T11:03:03.610Z,54.47
2019-03-23T11:05:32.320Z,52.73
2019-03-23T11:08:01.120Z,56.73
2019-03-23T11:10:29.812Z,56.93
2019-03-23T11:12:58.615Z,55.47
2019-03-23T11:15:27.310Z,56.50
2019-03-23T11:17:56.010Z,57.17
2019-03-23T11:20:24.687Z,55.90
2019-03-23T11:22:53.382Z,58.73
2019-03-23T11:25:22.373Z,55.70
2019-03-23T11:27:51.282Z,56.50
2019-03-23T11:30:19.949Z,55.57
2019-03-23T11:32:48.968Z,53.70
2019-03-23T11:35:17.723Z,51.83
2019-03-23T11:37:46.794Z,53.53
2019-03-23T11:40:15.686Z,56.27
2019-03-23T11:42:49.958Z,45.20
2019-03-23T11:45:16.011Z,46.60
2019-03-23T11:47:44.821Z,44.47
2019-03-23T11:50:13.615Z,42.90
2019-03-23T11:52:42.330Z,44.23
2019-03-23T11:55:11.206Z,39.00
2019-03-23T11:57:40.118Z,40.40
2019-03-23T12:00:11.741Z,41.90
2019-03-23T12:02:40.447Z,38.23
2019-03-23T12:05:09.728Z,41.10
2019-03-23T12:07:38.452Z,40.67
2019-03-23T12:10:13.863Z,42.03
2019-03-23T12:12:42.566Z,38.40
2019-03-23T12:15:12.595Z,42.00
2019-03-23T12:17:41.321Z,39.53
2019-03-23T12:20:10.606Z,36.23
2019-03-23T12:22:39.330Z,39.00
2019-03-23T12:25:08.427Z,38.10
2019-03-23T12:27:37.152Z,38.37
2019-03-23T12:30:08.211Z,38.10
2019-03-23T12:32:36.910Z,38.23
2019-03-23T12:35:07.407Z,37.30
2019-03-23T12:37:36.090Z,35.93
2019-03-23T12:40:07.249Z,33.73
2019-03-23T12:42:35.969Z,34.37
2019-03-23T12:45:06.117Z,33.40
2019-03-23T12:47:41.084Z,30.20
2019-03-23T12:50:11.658Z,33.63
2019-03-23T12:52:40.476Z,31.50
2019-03-23T12:55:10.119Z,29.80
2019-03-23T12:57:38.888Z,30.20
2019-03-23T13:00:10.569Z,30.87
2019-03-23T13:02:39.276Z,30.93
2019-03-23T13:05:08.255Z,30.90
2019-03-23T13:07:36.934Z,27.93
2019-03-23T13:10:07.912Z,29.03
2019-03-23T13:12:36.740Z,31.33
2019-03-23T13:15:13.430Z,33.20
2019-03-23T13:17:42.128Z,29.20
2019-03-23T13:20:11.644Z,32.90
2019-03-23T13:22:40.431Z,29.70
2019-03-23T13:25:09.918Z,29.23
2019-03-23T13:27:38.911Z,28.70
2019-03-23T13:30:13.433Z,27.10
2019-03-23T13:32:42.147Z,26.13
2019-03-23T13:35:11.275Z,28.53
2019-03-23T13:37:42.365Z,29.33
2019-03-23T13:40:12.473Z,26.73
2019-03-23T13:42:41.172Z,28.97
2019-03-23T13:45:10.652Z,27.20
2019-03-23T13:47:39.654Z,29.03
2019-03-23T13:50:09.834Z,29.00
2019-03-23T13:52:38.558Z,29.30
2019-03-23T13:55:09.607Z,29.50
2019-03-23T13:57:38.681Z,28.10
2019-03-23T14:00:11.134Z,28.63
2019-03-23T14:02:59.154Z,28.60
2019-03-23T14:05:28.023Z,29.63
2019-03-23T14:07:56.728Z,28.73
2019-03-23T14:10:25.408Z,27.83
2019-03-23T14:12:54.119Z,26.97
2019-03-23T14:15:22.802Z,29.13
2019-03-23T14:17:51.514Z,26.13
2019-03-23T14:20:20.212Z,27.13
2019-03-23T14:22:48.963Z,27.23
2019-03-23T14:25:17.671Z,26.57
2019-03-23T14:27:46.407Z,22.10
2019-03-23T14:30:15.214Z,24.60
2019-03-23T14:32:43.968Z,24.13
2019-03-23T14:35:12.630Z,25.50
2019-03-23T14:37:41.339Z,26.00
2019-03-23T14:40:11.211Z,27.70
2019-03-23T14:42:39.928Z,27.60
2019-03-23T14:45:09.331Z,25.53
2019-03-23T14:47:39.375Z,27.43
2019-03-23T14:50:08.618Z,29.33
2019-03-23T14:52:37.297Z,27.50
2019-03-23T14:55:07.221Z,27.80
2019-03-23T14:57:35.980Z,26.87
2019-03-23T15:00:07.428Z,26.10
2019-03-23T15:02:36.171Z,27.73
2019-03-23T15:05:07.150Z,29.73
2019-03-23T15:07:35.917Z,27.77
2019-03-23T15:10:07.532Z,27.60
2019-03-23T15:12:36.208Z,27.27
2019-03-23T15:15:06.962Z,30.00
2019-03-23T15:17:35.672Z,30.97
2019-03-23T15:20:05.947Z,29.67
2019-03-23T15:22:34.630Z,29.53
2019-03-23T15:25:03.728Z,28.47
2019-03-23T15:27:32.411Z,30.60
2019-03-23T15:30:02.983Z,31.67
2019-03-23T15:32:31.665Z,28.60
2019-03-23T15:35:00.536Z,31.17
2019-03-23T15:37:29.224Z,30.10
2019-03-23T15:39:57.928Z,34.60
2019-03-23T15:42:26.806Z,32.73
2019-03-23T15:45:14.841Z,30.90
2019-03-23T15:47:43.534Z,34.80
2019-03-23T15:50:12.725Z,32.07
2019-03-23T15:52:41.441Z,30.40
2019-03-23T15:55:10.509Z,30.10
2019-03-23T15:57:39.535Z,33.80
2019-03-23T16:00:10.157Z,31.67
2019-03-23T16:02:38.832Z,32.40
2019-03-23T16:05:08.956Z,33.43
2019-03-23T16:07:37.911Z,33.13
2019-03-23T16:10:08.424Z,31.93
2019-03-23T16:12:37.903Z,29.67
2019-03-23T16:15:09.273Z,33.90
2019-03-23T16:17:37.953Z,35.30
2019-03-23T16:20:09.575Z,33.37
2019-03-23T16:22:38.448Z,30.30
2019-03-23T16:25:08.252Z,29.87
2019-03-23T16:27:36.930Z,30.87
2019-03-23T16:30:10.991Z,29.50
2019-03-23T16:32:39.674Z,30.00
2019-03-23T16:35:08.969Z,31.30
2019-03-23T16:37:37.741Z,31.80
2019-03-23T16:40:10.470Z,31.53
2019-03-23T16:42:45.188Z,33.90
2019-03-23T16:45:10.693Z,31.37
2019-03-23T16:47:39.482Z,31.90
2019-03-23T16:50:09.889Z,33.23
2019-03-23T16:52:39.043Z,35.83
2019-03-23T16:55:09.765Z,35.53
2019-03-23T16:57:38.504Z,33.97
2019-03-23T17:00:10.525Z,34.50
2019-03-23T17:02:39.258Z,36.07
2019-03-23T17:05:08.802Z,33.30
2019-03-23T17:07:37.530Z,37.70
2019-03-23T17:10:07.965Z,36.67
2019-03-23T17:12:36.891Z,36.90
2019-03-23T17:15:07.551Z,34.27
2019-03-23T17:17:36.617Z,35.60
2019-03-23T17:20:05.975Z,35.27
2019-03-23T17:22:35.054Z,34.30
2019-03-23T17:25:06.014Z,34.13
2019-03-23T17:27:34.766Z,34.47
2019-03-23T17:30:05.273Z,35.03
2019-03-23T17:32:34.005Z,34.63
2019-03-23T17:35:02.707Z,34.63
2019-03-23T17:37:31.395Z,35.77
2019-03-23T17:40:00.346Z,35.40
2019-03-23T17:42:29.234Z,36.37
2019-03-23T17:44:57.939Z,36.47
2019-03-23T17:47:26.675Z,35.23
2019-03-23T17:49:57.205Z,34.47
2019-03-23T17:52:25.817Z,36.60
2019-03-23T17:54:54.542Z,36.27
2019-03-23T17:57:23.298Z,36.63
2019-03-23T17:59:52.069Z,35.60
2019-03-23T18:02:20.985Z,37.93
2019-03-23T18:04:49.693Z,36.77
2019-03-23T18:07:18.416Z,37.47
2019-03-23T18:09:47.131Z,36.40
2019-03-23T18:12:16.043Z,36.50
2019-03-23T18:14:44.746Z,36.53
2019-03-23T18:17:13.517Z,35.37
2019-03-23T18:19:42.206Z,33.10
2019-03-23T18:22:10.919Z,34.07
2019-03-23T18:24:39.645Z,35.17
2019-03-23T18:27:08.359Z,34.87
2019-03-23T18:29:37.228Z,35.07
2019-03-23T18:32:08.870Z,33.97
2019-03-23T18:34:37.595Z,34.20
2019-03-23T18:37:06.277Z,32.60
2019-03-23T18:39:34.988Z,35.27
2019-03-23T18:42:03.717Z,39.13
2019-03-23T18:44:32.411Z,35.53
2019-03-23T18:47:01.352Z,38.10
2019-03-23T18:49:30.102Z,39.80
2019-03-23T18:51:58.830Z,38.23
2019-03-23T18:54:27.559Z,34.17
2019-03-23T18:56:59.023Z,34.20
2019-03-23T18:59:27.761Z,31.63
2019-03-23T19:01:56.939Z,30.30
2019-03-23T19:04:27.928Z,28.53
2019-03-23T19:06:56.661Z,27.03
2019-03-23T19:09:25.580Z,25.50
2019-03-23T19:11:54.488Z,24.47
2019-03-23T19:14:23.234Z,18.87
2019-03-23T19:16:51.961Z,17.93
2019-03-23T19:19:20.655Z,16.80
2019-03-23T19:21:49.349Z,17.00
2019-03-23T19:24:18.062Z,14.83
2019-03-23T19:26:48.709Z,16.03
2019-03-23T19:29:17.459Z,17.00
2019-03-23T19:31:46.219Z,15.37
2019-03-23T19:34:15.170Z,15.03
2019-03-23T19:36:43.905Z,16.27
2019-03-23T19:39:12.692Z,14.97
2019-03-23T19:41:42.619Z,15.43
2019-03-23T19:44:11.397Z,15.23
2019-03-23T19:46:40.116Z,14.97
2019-03-23T19:49:08.823Z,15.47
2019-03-23T19:51:37.572Z,14.70
2019-03-23T19:54:06.335Z,15.10
2019-03-23T19:56:35.063Z,16.00
2019-03-23T19:59:03.768Z,15.40
2019-03-23T20:01:32.561Z,15.30
2019-03-23T20:04:01.325Z,16.13
2019-03-23T20:06:30.040Z,17.87
2019-03-23T20:08:59.486Z,18.70
2019-03-23T20:11:28.465Z,18.30
2019-03-23T20:13:59.200Z,17.30
2019-03-23T20:16:28.170Z,17.20
2019-03-23T20:18:57.041Z,16.63
2019-03-23T20:21:25.850Z,18.67
2019-03-23T20:23:54.551Z,19.37
2019-03-23T20:26:25.118Z,17.67
2019-03-23T20:28:53.791Z,18.47
2019-03-23T20:31:22.562Z,19.23
2019-03-23T20:33:51.288Z,18.30
2019-03-23T20:36:20.151Z,19.60
2019-03-23T20:38:48.914Z,19.30
2019-03-23T20:41:17.611Z,19.73
2019-03-23T20:43:46.321Z,19.00
2019-03-23T20:46:15.120Z,19.10
2019-03-23T20:48:44.232Z,20.13
2019-03-23T20:51:13.156Z,18.47
2019-03-23T20:53:42.022Z,19.17
2019-03-23T20:56:10.818Z,19.20
2019-03-23T20:58:39.651Z,17.37
2019-03-23T21:01:09.814Z,17.70
2019-03-23T21:03:38.545Z,17.93
2019-03-23T21:06:07.277Z,17.20
2019-03-23T21:08:36.099Z,17.03
2019-03-23T21:11:04.839Z,15.73
2019-03-23T21:13:33.719Z,16.73
2019-03-23T21:16:02.423Z,17.80
2019-03-23T21:18:31.146Z,15.87
2019-03-23T21:20:59.876Z,16.33
2019-03-23T21:23:28.628Z,16.70
2019-03-23T21:25:57.609Z,15.87
2019-03-23T21:28:26.371Z,14.30
2019-03-23T21:30:55.323Z,11.77
2019-03-23T21:33:24.040Z,13.47
2019-03-23T21:35:52.726Z,11.30
2019-03-23T21:38:21.427Z,10.50
2019-03-23T21:40:50.136Z,9.07
2019-03-23T21:43:18.812Z,9.37
2019-03-23T21:45:47.533Z,9.60
2019-03-23T21:48:16.227Z,8.47
2019-03-23T21:50:47.753Z,7.87
2019-03-23T21:53:15.333Z,9.37
2019-03-23T21:55:44.051Z,7.93
2019-03-23T21:58:12.718Z,7.77
2019-03-23T22:00:41.459Z,8.03
2019-03-23T22:03:10.138Z,6.73
2019-03-23T22:05:40.213Z,8.90
2019-03-23T22:08:08.964Z,8.10
2019-03-23T22:10:37.744Z,8.13
2019-03-23T22:13:06.468Z,7.43
2019-03-23T22:15:35.136Z,7.87
2019-03-23T22:18:04.522Z,6.30
2019-03-23T22:20:33.205Z,6.37
2019-03-23T22:23:01.892Z,6.00
2019-03-23T22:25:30.576Z,6.33
2019-03-23T22:28:00.176Z,5.60
2019-03-23T22:30:28.878Z,5.90
2019-03-23T22:32:57.611Z,5.80
2019-03-23T22:35:26.282Z,5.60
2019-03-23T22:37:54.994Z,5.67
2019-03-23T22:40:23.658Z,6.27
2019-03-23T22:42:52.392Z,5.63
2019-03-23T22:45:21.062Z,6.10
2019-03-23T22:47:49.768Z,5.93
2019-03-23T22:50:18.424Z,5.90
2019-03-23T22:52:47.230Z,5.33
2019-03-23T22:55:15.906Z,5.23
2019-03-23T22:57:44.718Z,5.57
2019-03-23T23:00:17.462Z,5.27
2019-03-23T23:02:48.004Z,5.60
2019-03-23T23:05:16.670Z,6.00
2019-03-23T23:07:46.076Z,5.20
2019-03-23T23:10:14.759Z,5.23
2019-03-23T23:12:43.457Z,5.70
2019-03-23T23:15:12.504Z,4.90
2019-03-23T23:17:41.389Z,4.30
2019-03-23T23:20:10.600Z,5.50
2019-03-23T23:22:39.265Z,5.90
2019-03-23T23:25:08.565Z,5.23
2019-03-23T23:27:37.426Z,5.47
2019-03-23T23:30:08.583Z,6.13
2019-03-23T23:32:37.566Z,6.80
2019-03-23T23:35:08.802Z,5.60
2019-03-23T23:37:37.500Z,7.50
2019-03-23T23:40:07.701Z,6.90
2019-03-23T23:42:36.386Z,6.40
2019-03-23T23:45:15.500Z,5.55
2019-03-23T23:47:38.143Z,7.10
2019-03-23T23:50:07.542Z,6.50
2019-03-23T23:52:36.228Z,6.40
2019-03-23T23:55:06.510Z,7.23
2019-03-23T23:57:35.179Z,6.37
